sensor_id;sensor_type;location;lat;lon;timestamp;P1;P2;P0
72023;PMS5003;59889;50.700;5.440;2024-01-10T00:00:32;5;5;
72023;PMS5003;59889;50.700;5.440;2024-01-10T00:02:57;4;4;
72023;PMS5003;59889;50.700;5.440;2024-01-10T00:05:22;7;5;
72023;PMS5003;59889;50.700;5.440;2024-01-10T00:07:48;5;5;
72023;PMS5003;59889;50.700;5.440;2024-01-10T00:10:13;6;6;
72023;PMS5003;59889;50.700;5.440;2024-01-10T00:12:38;5;4;
72023;PMS5003;59889;50.700;5.440;2024-01-10T00:15:03;6;5;
72023;PMS5003;59889;50.700;5.440;2024-01-10T00:17:28;3;3;
72023;PMS5003;59889;50.700;5.440;2024-01-10T00:19:54;5;5;
72023;PMS5003;59889;50.700;5.440;2024-01-10T00:22:19;5;5;
72023;PMS5003;59889;50.700;5.440;2024-01-10T00:24:44;4;4;
72023;PMS5003;59889;50.700;5.440;2024-01-10T00:27:09;6;6;
72023;PMS5003;59889;50.700;5.440;2024-01-10T00:29:34;7;7;
72023;PMS5003;59889;50.700;5.440;2024-01-10T00:31:59;4;4;
72023;PMS5003;59889;50.700;5.440;2024-01-10T00:34:24;5;5;
72023;PMS5003;59889;50.700;5.440;2024-01-10T00:36:49;5;4;
72023;PMS5003;59889;50.700;5.440;2024-01-10T00:39:14;5;5;
72023;PMS5003;59889;50.700;5.440;2024-01-10T00:41:40;3;3;
72023;PMS5003;59889;50.700;5.440;2024-01-10T00:44:05;5;5;
72023;PMS5003;59889;50.700;5.440;2024-01-10T00:46:30;3;3;
72023;PMS5003;59889;50.700;5.440;2024-01-10T00:48:55;4;4;
72023;PMS5003;59889;50.700;5.440;2024-01-10T00:51:20;5;5;
72023;PMS5003;59889;50.700;5.440;2024-01-10T00:53:45;6;5;
72023;PMS5003;59889;50.700;5.440;2024-01-10T00:56:10;6;6;
72023;PMS5003;59889;50.700;5.440;2024-01-10T00:58:35;5;5;
72023;PMS5003;59889;50.700;5.440;2024-01-10T01:01:01;5;4;
72023;PMS5003;59889;50.700;5.440;2024-01-10T01:03:26;6;5;
72023;PMS5003;59889;50.700;5.440;2024-01-10T01:05:51;6;5;
72023;PMS5003;59889;50.700;5.440;2024-01-10T01:08:16;4;4;
72023;PMS5003;59889;50.700;5.440;2024-01-10T01:10:41;5;5;
72023;PMS5003;59889;50.700;5.440;2024-01-10T01:13:06;5;5;
72023;PMS5003;59889;50.700;5.440;2024-01-10T01:15:31;4;4;
72023;PMS5003;59889;50.700;5.440;2024-01-10T01:17:57;4;3;
72023;PMS5003;59889;50.700;5.440;2024-01-10T01:20:22;4;4;
72023;PMS5003;59889;50.700;5.440;2024-01-10T01:22:47;5;4;
72023;PMS5003;59889;50.700;5.440;2024-01-10T01:25:12;5;5;
72023;PMS5003;59889;50.700;5.440;2024-01-10T01:27:37;5;5;
72023;PMS5003;59889;50.700;5.440;2024-01-10T01:30:03;6;6;
72023;PMS5003;59889;50.700;5.440;2024-01-10T01:32:27;5;5;
72023;PMS5003;59889;50.700;5.440;2024-01-10T01:34:53;5;5;
72023;PMS5003;59889;50.700;5.440;2024-01-10T01:37:18;3;3;
72023;PMS5003;59889;50.700;5.440;2024-01-10T01:39:43;5;5;
72023;PMS5003;59889;50.700;5.440;2024-01-10T01:42:08;6;5;
72023;PMS5003;59889;50.700;5.440;2024-01-10T01:44:33;5;5;
72023;PMS5003;59889;50.700;5.440;2024-01-10T01:46:58;5;4;
72023;PMS5003;59889;50.700;5.440;2024-01-10T01:49:24;5;4;
72023;PMS5003;59889;50.700;5.440;2024-01-10T01:51:49;6;6;
72023;PMS5003;59889;50.700;5.440;2024-01-10T01:54:14;6;4;
72023;PMS5003;59889;50.700;5.440;2024-01-10T01:56:39;4;4;
72023;PMS5003;59889;50.700;5.440;2024-01-10T01:59:04;5;4;
72023;PMS5003;59889;50.700;5.440;2024-01-10T02:01:30;6;5;
72023;PMS5003;59889;50.700;5.440;2024-01-10T02:03:54;5;5;
72023;PMS5003;59889;50.700;5.440;2024-01-10T02:06:19;5;5;
72023;PMS5003;59889;50.700;5.440;2024-01-10T02:08:45;5;5;
72023;PMS5003;59889;50.700;5.440;2024-01-10T02:11:10;4;4;
72023;PMS5003;59889;50.700;5.440;2024-01-10T02:13:35;5;5;
72023;PMS5003;59889;50.700;5.440;2024-01-10T02:16:00;5;5;
72023;PMS5003;59889;50.700;5.440;2024-01-10T02:18:25;4;4;
72023;PMS5003;59889;50.700;5.440;2024-01-10T02:20:50;6;5;
72023;PMS5003;59889;50.700;5.440;2024-01-10T02:23:15;7;6;
72023;PMS5003;59889;50.700;5.440;2024-01-10T02:25:41;5;5;
72023;PMS5003;59889;50.700;5.440;2024-01-10T02:28:06;5;5;
72023;PMS5003;59889;50.700;5.440;2024-01-10T02:30:31;5;5;
72023;PMS5003;59889;50.700;5.440;2024-01-10T02:32:56;4;4;
72023;PMS5003;59889;50.700;5.440;2024-01-10T02:35:21;5;4;
72023;PMS5003;59889;50.700;5.440;2024-01-10T02:37:46;3;3;
72023;PMS5003;59889;50.700;5.440;2024-01-10T02:40:11;4;4;
72023;PMS5003;59889;50.700;5.440;2024-01-10T02:42:36;6;5;
72023;PMS5003;59889;50.700;5.440;2024-01-10T02:45:02;4;4;
72023;PMS5003;59889;50.700;5.440;2024-01-10T02:47:27;5;4;
72023;PMS5003;59889;50.700;5.440;2024-01-10T02:49:53;5;4;
72023;PMS5003;59889;50.700;5.440;2024-01-10T02:52:17;4;4;
72023;PMS5003;59889;50.700;5.440;2024-01-10T02:54:42;5;4;
72023;PMS5003;59889;50.700;5.440;2024-01-10T02:57:07;5;5;
72023;PMS5003;59889;50.700;5.440;2024-01-10T02:59:32;4;4;
72023;PMS5003;59889;50.700;5.440;2024-01-10T03:01:58;5;4;
72023;PMS5003;59889;50.700;5.440;2024-01-10T03:04:23;5;3;
72023;PMS5003;59889;50.700;5.440;2024-01-10T03:06:48;4;4;
72023;PMS5003;59889;50.700;5.440;2024-01-10T03:09:13;7;7;
72023;PMS5003;59889;50.700;5.440;2024-01-10T03:11:38;5;5;
72023;PMS5003;59889;50.700;5.440;2024-01-10T03:14:04;4;4;
72023;PMS5003;59889;50.700;5.440;2024-01-10T03:16:28;2;2;
72023;PMS5003;59889;50.700;5.440;2024-01-10T03:18:54;5;4;
72023;PMS5003;59889;50.700;5.440;2024-01-10T03:21:19;5;4;
72023;PMS5003;59889;50.700;5.440;2024-01-10T03:23:44;4;4;
72023;PMS5003;59889;50.700;5.440;2024-01-10T03:26:09;4;4;
72023;PMS5003;59889;50.700;5.440;2024-01-10T03:28:34;5;5;
72023;PMS5003;59889;50.700;5.440;2024-01-10T03:30:59;6;4;
72023;PMS5003;59889;50.700;5.440;2024-01-10T03:33:24;4;4;
72023;PMS5003;59889;50.700;5.440;2024-01-10T03:35:49;5;5;
72023;PMS5003;59889;50.700;5.440;2024-01-10T03:38:15;4;4;
72023;PMS5003;59889;50.700;5.440;2024-01-10T03:40:41;4;4;
72023;PMS5003;59889;50.700;5.440;2024-01-10T03:43:05;5;5;
72023;PMS5003;59889;50.700;5.440;2024-01-10T03:45:30;5;4;
72023;PMS5003;59889;50.700;5.440;2024-01-10T03:47:55;4;4;
72023;PMS5003;59889;50.700;5.440;2024-01-10T03:50:20;4;4;
72023;PMS5003;59889;50.700;5.440;2024-01-10T03:52:46;6;5;
72023;PMS5003;59889;50.700;5.440;2024-01-10T03:55:11;5;5;
72023;PMS5003;59889;50.700;5.440;2024-01-10T03:57:36;5;5;
72023;PMS5003;59889;50.700;5.440;2024-01-10T04:00:01;3;3;
72023;PMS5003;59889;50.700;5.440;2024-01-10T04:02:26;5;5;
72023;PMS5003;59889;50.700;5.440;2024-01-10T04:04:51;6;5;
72023;PMS5003;59889;50.700;5.440;2024-01-10T04:07:16;6;4;
72023;PMS5003;59889;50.700;5.440;2024-01-10T04:09:41;3;3;
72023;PMS5003;59889;50.700;5.440;2024-01-10T04:12:07;4;4;
72023;PMS5003;59889;50.700;5.440;2024-01-10T04:14:32;3;3;
72023;PMS5003;59889;50.700;5.440;2024-01-10T04:16:57;5;5;
72023;PMS5003;59889;50.700;5.440;2024-01-10T04:19:22;4;3;
72023;PMS5003;59889;50.700;5.440;2024-01-10T04:21:47;4;4;
72023;PMS5003;59889;50.700;5.440;2024-01-10T04:24:12;6;5;
72023;PMS5003;59889;50.700;5.440;2024-01-10T04:26:37;6;4;
72023;PMS5003;59889;50.700;5.440;2024-01-10T04:29:02;4;4;
72023;PMS5003;59889;50.700;5.440;2024-01-10T04:31:28;4;4;
72023;PMS5003;59889;50.700;5.440;2024-01-10T04:33:53;4;4;
72023;PMS5003;59889;50.700;5.440;2024-01-10T04:36:18;5;5;
72023;PMS5003;59889;50.700;5.440;2024-01-10T04:38:43;4;4;
72023;PMS5003;59889;50.700;5.440;2024-01-10T04:41:08;5;4;
72023;PMS5003;59889;50.700;5.440;2024-01-10T04:43:33;5;4;
72023;PMS5003;59889;50.700;5.440;2024-01-10T04:45:58;4;3;
72023;PMS5003;59889;50.700;5.440;2024-01-10T04:48:24;3;3;
72023;PMS5003;59889;50.700;5.440;2024-01-10T04:50:49;6;5;
72023;PMS5003;59889;50.700;5.440;2024-01-10T04:53:14;3;3;
72023;PMS5003;59889;50.700;5.440;2024-01-10T04:55:39;4;4;
72023;PMS5003;59889;50.700;5.440;2024-01-10T04:58:04;4;4;
72023;PMS5003;59889;50.700;5.440;2024-01-10T05:00:29;5;5;
72023;PMS5003;59889;50.700;5.440;2024-01-10T05:02:54;4;4;
72023;PMS5003;59889;50.700;5.440;2024-01-10T05:05:20;6;5;
72023;PMS5003;59889;50.700;5.440;2024-01-10T05:07:45;4;4;
72023;PMS5003;59889;50.700;5.440;2024-01-10T05:10:10;4;4;
72023;PMS5003;59889;50.700;5.440;2024-01-10T05:12:35;6;4;
72023;PMS5003;59889;50.700;5.440;2024-01-10T05:15:00;4;4;
72023;PMS5003;59889;50.700;5.440;2024-01-10T05:17:25;5;4;
72023;PMS5003;59889;50.700;5.440;2024-01-10T05:19:50;4;3;
72023;PMS5003;59889;50.700;5.440;2024-01-10T05:22:16;5;4;
72023;PMS5003;59889;50.700;5.440;2024-01-10T05:24:41;4;4;
72023;PMS5003;59889;50.700;5.440;2024-01-10T05:27:06;3;3;
72023;PMS5003;59889;50.700;5.440;2024-01-10T05:29:31;3;3;
72023;PMS5003;59889;50.700;5.440;2024-01-10T05:31:56;5;4;
72023;PMS5003;59889;50.700;5.440;2024-01-10T05:34:21;5;4;
72023;PMS5003;59889;50.700;5.440;2024-01-10T05:36:46;4;4;
72023;PMS5003;59889;50.700;5.440;2024-01-10T05:39:11;4;4;
72023;PMS5003;59889;50.700;5.440;2024-01-10T05:41:37;5;4;
72023;PMS5003;59889;50.700;5.440;2024-01-10T05:44:02;3;3;
72023;PMS5003;59889;50.700;5.440;2024-01-10T05:46:27;4;3;
72023;PMS5003;59889;50.700;5.440;2024-01-10T05:48:52;5;5;
72023;PMS5003;59889;50.700;5.440;2024-01-10T05:51:17;3;3;
72023;PMS5003;59889;50.700;5.440;2024-01-10T05:53:42;5;5;
72023;PMS5003;59889;50.700;5.440;2024-01-10T05:56:07;4;3;
72023;PMS5003;59889;50.700;5.440;2024-01-10T05:58:33;4;3;
72023;PMS5003;59889;50.700;5.440;2024-01-10T06:00:58;5;5;
72023;PMS5003;59889;50.700;5.440;2024-01-10T06:03:23;5;5;
72023;PMS5003;59889;50.700;5.440;2024-01-10T06:05:48;4;3;
72023;PMS5003;59889;50.700;5.440;2024-01-10T06:08:13;5;5;
72023;PMS5003;59889;50.700;5.440;2024-01-10T06:10:38;5;4;
72023;PMS5003;59889;50.700;5.440;2024-01-10T06:13:03;4;3;
72023;PMS5003;59889;50.700;5.440;2024-01-10T06:15:29;4;4;
72023;PMS5003;59889;50.700;5.440;2024-01-10T06:17:54;4;4;
72023;PMS5003;59889;50.700;5.440;2024-01-10T06:20:19;5;5;
72023;PMS5003;59889;50.700;5.440;2024-01-10T06:22:44;2;2;
72023;PMS5003;59889;50.700;5.440;2024-01-10T06:25:09;4;4;
72023;PMS5003;59889;50.700;5.440;2024-01-10T06:27:34;3;3;
72023;PMS5003;59889;50.700;5.440;2024-01-10T06:29:59;3;3;
72023;PMS5003;59889;50.700;5.440;2024-01-10T06:32:25;9;8;
72023;PMS5003;59889;50.700;5.440;2024-01-10T06:34:51;9;8;
72023;PMS5003;59889;50.700;5.440;2024-01-10T06:37:15;10;9;
72023;PMS5003;59889;50.700;5.440;2024-01-10T06:39:41;12;10;
72023;PMS5003;59889;50.700;5.440;2024-01-10T06:42:05;10;10;
72023;PMS5003;59889;50.700;5.440;2024-01-10T06:44:31;13;11;
72023;PMS5003;59889;50.700;5.440;2024-01-10T06:46:56;9;9;
72023;PMS5003;59889;50.700;5.440;2024-01-10T06:49:21;10;9;
72023;PMS5003;59889;50.700;5.440;2024-01-10T06:51:46;11;11;
72023;PMS5003;59889;50.700;5.440;2024-01-10T06:54:12;11;10;
72023;PMS5003;59889;50.700;5.440;2024-01-10T06:56:37;14;14;
72023;PMS5003;59889;50.700;5.440;2024-01-10T06:59:03;13;12;
72023;PMS5003;59889;50.700;5.440;2024-01-10T07:01:27;13;12;
72023;PMS5003;59889;50.700;5.440;2024-01-10T07:03:53;11;10;
72023;PMS5003;59889;50.700;5.440;2024-01-10T07:06:18;10;9;
72023;PMS5003;59889;50.700;5.440;2024-01-10T07:08:43;14;13;
72023;PMS5003;59889;50.700;5.440;2024-01-10T07:11:09;15;15;
72023;PMS5003;59889;50.700;5.440;2024-01-10T07:13:36;19;15;
72023;PMS5003;59889;50.700;5.440;2024-01-10T07:15:59;14;13;
72023;PMS5003;59889;50.700;5.440;2024-01-10T07:18:25;13;12;
72023;PMS5003;59889;50.700;5.440;2024-01-10T07:20:50;16;13;
72023;PMS5003;59889;50.700;5.440;2024-01-10T07:23:16;11;11;
72023;PMS5003;59889;50.700;5.440;2024-01-10T07:25:41;13;12;
72023;PMS5003;59889;50.700;5.440;2024-01-10T07:28:06;10;10;
72023;PMS5003;59889;50.700;5.440;2024-01-10T07:30:32;11;11;
72023;PMS5003;59889;50.700;5.440;2024-01-10T07:32:57;13;11;
72023;PMS5003;59889;50.700;5.440;2024-01-10T07:35:22;15;13;
72023;PMS5003;59889;50.700;5.440;2024-01-10T07:37:47;15;12;
72023;PMS5003;59889;50.700;5.440;2024-01-10T07:40:13;15;13;
72023;PMS5003;59889;50.700;5.440;2024-01-10T07:42:39;16;14;
72023;PMS5003;59889;50.700;5.440;2024-01-10T07:45:05;18;15;
72023;PMS5003;59889;50.700;5.440;2024-01-10T07:47:29;15;12;
72023;PMS5003;59889;50.700;5.440;2024-01-10T07:49:54;15;14;
72023;PMS5003;59889;50.700;5.440;2024-01-10T07:52:19;12;11;
72023;PMS5003;59889;50.700;5.440;2024-01-10T07:54:45;14;13;
72023;PMS5003;59889;50.700;5.440;2024-01-10T07:57:10;13;11;
72023;PMS5003;59889;50.700;5.440;2024-01-10T07:59:35;13;12;
72023;PMS5003;59889;50.700;5.440;2024-01-10T08:02:00;13;11;
72023;PMS5003;59889;50.700;5.440;2024-01-10T08:04:27;14;12;
72023;PMS5003;59889;50.700;5.440;2024-01-10T08:06:51;11;10;
72023;PMS5003;59889;50.700;5.440;2024-01-10T08:09:16;10;10;
72023;PMS5003;59889;50.700;5.440;2024-01-10T08:11:41;15;13;
72023;PMS5003;59889;50.700;5.440;2024-01-10T08:14:07;12;9;
72023;PMS5003;59889;50.700;5.440;2024-01-10T08:16:32;11;11;
72023;PMS5003;59889;50.700;5.440;2024-01-10T08:18:57;8;8;
72023;PMS5003;59889;50.700;5.440;2024-01-10T08:21:23;11;10;
72023;PMS5003;59889;50.700;5.440;2024-01-10T08:23:55;11;10;
72023;PMS5003;59889;50.700;5.440;2024-01-10T08:26:12;12;11;
72023;PMS5003;59889;50.700;5.440;2024-01-10T08:28:38;15;14;
72023;PMS5003;59889;50.700;5.440;2024-01-10T08:31:03;13;11;
72023;PMS5003;59889;50.700;5.440;2024-01-10T08:33:28;12;10;
72023;PMS5003;59889;50.700;5.440;2024-01-10T08:35:53;14;10;
72023;PMS5003;59889;50.700;5.440;2024-01-10T08:38:18;9;9;
72023;PMS5003;59889;50.700;5.440;2024-01-10T08:40:44;11;11;
72023;PMS5003;59889;50.700;5.440;2024-01-10T08:43:10;11;10;
72023;PMS5003;59889;50.700;5.440;2024-01-10T08:45:35;11;10;
72023;PMS5003;59889;50.700;5.440;2024-01-10T08:48:00;11;9;
72023;PMS5003;59889;50.700;5.440;2024-01-10T08:50:26;9;9;
72023;PMS5003;59889;50.700;5.440;2024-01-10T08:52:50;12;11;
72023;PMS5003;59889;50.700;5.440;2024-01-10T08:55:15;11;11;
72023;PMS5003;59889;50.700;5.440;2024-01-10T08:57:41;12;10;
72023;PMS5003;59889;50.700;5.440;2024-01-10T09:00:06;11;10;
72023;PMS5003;59889;50.700;5.440;2024-01-10T09:02:31;9;9;
72023;PMS5003;59889;50.700;5.440;2024-01-10T09:04:57;13;10;
72023;PMS5003;59889;50.700;5.440;2024-01-10T09:07:21;8;8;
72023;PMS5003;59889;50.700;5.440;2024-01-10T09:09:47;12;10;
72023;PMS5003;59889;50.700;5.440;2024-01-10T09:12:12;8;8;
72023;PMS5003;59889;50.700;5.440;2024-01-10T09:14:37;10;9;
72023;PMS5003;59889;50.700;5.440;2024-01-10T09:17:02;12;11;
72023;PMS5003;59889;50.700;5.440;2024-01-10T09:19:28;19;19;
72023;PMS5003;59889;50.700;5.440;2024-01-10T09:21:53;12;12;
72023;PMS5003;59889;50.700;5.440;2024-01-10T09:24:18;14;13;
72023;PMS5003;59889;50.700;5.440;2024-01-10T09:26:44;16;15;
72023;PMS5003;59889;50.700;5.440;2024-01-10T09:29:10;18;17;
72023;PMS5003;59889;50.700;5.440;2024-01-10T09:31:35;13;13;
72023;PMS5003;59889;50.700;5.440;2024-01-10T09:34:01;12;10;
72023;PMS5003;59889;50.700;5.440;2024-01-10T09:36:26;12;11;
72023;PMS5003;59889;50.700;5.440;2024-01-10T09:38:52;11;10;
72023;PMS5003;59889;50.700;5.440;2024-01-10T09:41:17;12;11;
72023;PMS5003;59889;50.700;5.440;2024-01-10T09:43:43;13;13;
72023;PMS5003;59889;50.700;5.440;2024-01-10T09:46:08;11;11;
72023;PMS5003;59889;50.700;5.440;2024-01-10T09:48:33;15;13;
72023;PMS5003;59889;50.700;5.440;2024-01-10T09:50:59;9;9;
72023;PMS5003;59889;50.700;5.440;2024-01-10T09:53:24;13;12;
72023;PMS5003;59889;50.700;5.440;2024-01-10T09:55:49;10;10;
72023;PMS5003;59889;50.700;5.440;2024-01-10T09:58:15;14;13;
72023;PMS5003;59889;50.700;5.440;2024-01-10T10:00:40;14;13;
72023;PMS5003;59889;50.700;5.440;2024-01-10T10:03:05;12;11;
72023;PMS5003;59889;50.700;5.440;2024-01-10T10:05:31;10;9;
72023;PMS5003;59889;50.700;5.440;2024-01-10T10:07:57;10;10;
72023;PMS5003;59889;50.700;5.440;2024-01-10T10:10:21;9;9;
72023;PMS5003;59889;50.700;5.440;2024-01-10T10:12:46;10;9;
72023;PMS5003;59889;50.700;5.440;2024-01-10T10:15:13;11;11;
72023;PMS5003;59889;50.700;5.440;2024-01-10T10:17:36;11;10;
72023;PMS5003;59889;50.700;5.440;2024-01-10T10:20:03;11;9;
72023;PMS5003;59889;50.700;5.440;2024-01-10T10:22:27;12;12;
72023;PMS5003;59889;50.700;5.440;2024-01-10T10:24:52;13;12;
72023;PMS5003;59889;50.700;5.440;2024-01-10T10:27:17;11;9;
72023;PMS5003;59889;50.700;5.440;2024-01-10T10:29:42;10;9;
72023;PMS5003;59889;50.700;5.440;2024-01-10T10:32:07;11;10;
72023;PMS5003;59889;50.700;5.440;2024-01-10T10:34:33;12;10;
72023;PMS5003;59889;50.700;5.440;2024-01-10T10:36:58;12;9;
72023;PMS5003;59889;50.700;5.440;2024-01-10T10:39:24;10;9;
72023;PMS5003;59889;50.700;5.440;2024-01-10T10:41:49;11;10;
72023;PMS5003;59889;50.700;5.440;2024-01-10T10:44:14;10;9;
72023;PMS5003;59889;50.700;5.440;2024-01-10T10:46:40;10;10;
72023;PMS5003;59889;50.700;5.440;2024-01-10T10:49:06;13;11;
72023;PMS5003;59889;50.700;5.440;2024-01-10T10:51:32;11;9;
72023;PMS5003;59889;50.700;5.440;2024-01-10T10:53:55;11;9;
72023;PMS5003;59889;50.700;5.440;2024-01-10T10:56:20;12;10;
72023;PMS5003;59889;50.700;5.440;2024-01-10T10:58:45;11;10;
72023;PMS5003;59889;50.700;5.440;2024-01-10T11:01:11;11;10;
72023;PMS5003;59889;50.700;5.440;2024-01-10T11:03:36;9;9;
72023;PMS5003;59889;50.700;5.440;2024-01-10T11:06:02;10;10;
72023;PMS5003;59889;50.700;5.440;2024-01-10T11:08:27;11;10;
72023;PMS5003;59889;50.700;5.440;2024-01-10T11:10:52;9;9;
72023;PMS5003;59889;50.700;5.440;2024-01-10T11:13:22;9;8;
72023;PMS5003;59889;50.700;5.440;2024-01-10T11:15:47;11;9;
72023;PMS5003;59889;50.700;5.440;2024-01-10T11:18:14;14;12;
72023;PMS5003;59889;50.700;5.440;2024-01-10T11:20:36;8;8;
72023;PMS5003;59889;50.700;5.440;2024-01-10T11:23:02;13;11;
72023;PMS5003;59889;50.700;5.440;2024-01-10T11:25:23;11;9;
72023;PMS5003;59889;50.700;5.440;2024-01-10T11:27:51;10;9;
72023;PMS5003;59889;50.700;5.440;2024-01-10T11:30:13;10;10;
72023;PMS5003;59889;50.700;5.440;2024-01-10T11:32:39;9;8;
72023;PMS5003;59889;50.700;5.440;2024-01-10T11:35:04;14;11;
72023;PMS5003;59889;50.700;5.440;2024-01-10T11:37:38;12;12;
72023;PMS5003;59889;50.700;5.440;2024-01-10T11:39:54;9;9;
72023;PMS5003;59889;50.700;5.440;2024-01-10T11:42:22;9;8;
72023;PMS5003;59889;50.700;5.440;2024-01-10T11:44:48;11;11;
72023;PMS5003;59889;50.700;5.440;2024-01-10T11:47:10;9;8;
72023;PMS5003;59889;50.700;5.440;2024-01-10T11:49:35;13;11;
72023;PMS5003;59889;50.700;5.440;2024-01-10T11:52:01;11;11;
72023;PMS5003;59889;50.700;5.440;2024-01-10T11:54:35;9;9;
72023;PMS5003;59889;50.700;5.440;2024-01-10T11:56:51;10;9;
72023;PMS5003;59889;50.700;5.440;2024-01-10T11:59:17;9;8;
72023;PMS5003;59889;50.700;5.440;2024-01-10T12:01:42;11;11;
72023;PMS5003;59889;50.700;5.440;2024-01-10T12:04:07;11;11;
72023;PMS5003;59889;50.700;5.440;2024-01-10T12:06:34;11;11;
72023;PMS5003;59889;50.700;5.440;2024-01-10T12:08:57;10;10;
72023;PMS5003;59889;50.700;5.440;2024-01-10T12:11:23;12;11;
72023;PMS5003;59889;50.700;5.440;2024-01-10T12:13:49;10;10;
72023;PMS5003;59889;50.700;5.440;2024-01-10T12:16:14;9;9;
72023;PMS5003;59889;50.700;5.440;2024-01-10T12:18:39;10;9;
72023;PMS5003;59889;50.700;5.440;2024-01-10T12:21:03;10;10;
72023;PMS5003;59889;50.700;5.440;2024-01-10T12:23:28;9;9;
72023;PMS5003;59889;50.700;5.440;2024-01-10T12:25:53;11;10;
72023;PMS5003;59889;50.700;5.440;2024-01-10T12:28:19;10;9;
72023;PMS5003;59889;50.700;5.440;2024-01-10T12:30:44;11;11;
72023;PMS5003;59889;50.700;5.440;2024-01-10T12:33:09;10;10;
72023;PMS5003;59889;50.700;5.440;2024-01-10T12:35:34;11;10;
72023;PMS5003;59889;50.700;5.440;2024-01-10T12:37:59;11;10;
72023;PMS5003;59889;50.700;5.440;2024-01-10T12:40:24;9;8;
72023;PMS5003;59889;50.700;5.440;2024-01-10T12:45:20;14;12;
72023;PMS5003;59889;50.700;5.440;2024-01-10T12:47:41;10;9;
72023;PMS5003;59889;50.700;5.440;2024-01-10T12:50:06;12;11;
72023;PMS5003;59889;50.700;5.440;2024-01-10T12:52:31;10;9;
72023;PMS5003;59889;50.700;5.440;2024-01-10T12:54:56;9;8;
72023;PMS5003;59889;50.700;5.440;2024-01-10T12:57:21;11;10;
72023;PMS5003;59889;50.700;5.440;2024-01-10T12:59:46;12;10;
72023;PMS5003;59889;50.700;5.440;2024-01-10T13:02:12;9;9;
72023;PMS5003;59889;50.700;5.440;2024-01-10T13:04:37;12;11;
72023;PMS5003;59889;50.700;5.440;2024-01-10T13:07:03;7;7;
72023;PMS5003;59889;50.700;5.440;2024-01-10T13:09:28;11;11;
72023;PMS5003;59889;50.700;5.440;2024-01-10T13:11:53;11;10;
72023;PMS5003;59889;50.700;5.440;2024-01-10T13:14:18;9;9;
72023;PMS5003;59889;50.700;5.440;2024-01-10T13:16:43;11;10;
72023;PMS5003;59889;50.700;5.440;2024-01-10T13:19:08;11;11;
72023;PMS5003;59889;50.700;5.440;2024-01-10T13:21:33;11;9;
72023;PMS5003;59889;50.700;5.440;2024-01-10T13:23:59;12;9;
72023;PMS5003;59889;50.700;5.440;2024-01-10T13:26:24;11;9;
72023;PMS5003;59889;50.700;5.440;2024-01-10T13:28:49;10;9;
72023;PMS5003;59889;50.700;5.440;2024-01-10T13:31:14;12;10;
72023;PMS5003;59889;50.700;5.440;2024-01-10T13:33:39;9;9;
72023;PMS5003;59889;50.700;5.440;2024-01-10T13:36:05;12;11;
72023;PMS5003;59889;50.700;5.440;2024-01-10T13:38:30;12;11;
72023;PMS5003;59889;50.700;5.440;2024-01-10T13:40:55;9;9;
72023;PMS5003;59889;50.700;5.440;2024-01-10T13:43:21;13;11;
72023;PMS5003;59889;50.700;5.440;2024-01-10T13:45:46;10;9;
72023;PMS5003;59889;50.700;5.440;2024-01-10T13:48:11;11;10;
72023;PMS5003;59889;50.700;5.440;2024-01-10T13:50:36;11;10;
72023;PMS5003;59889;50.700;5.440;2024-01-10T13:53:01;9;9;
72023;PMS5003;59889;50.700;5.440;2024-01-10T13:55:26;13;11;
72023;PMS5003;59889;50.700;5.440;2024-01-10T13:57:52;10;9;
72023;PMS5003;59889;50.700;5.440;2024-01-10T14:00:19;8;8;
72023;PMS5003;59889;50.700;5.440;2024-01-10T14:02:42;9;8;
72023;PMS5003;59889;50.700;5.440;2024-01-10T14:05:08;9;9;
72023;PMS5003;59889;50.700;5.440;2024-01-10T14:07:33;11;10;
72023;PMS5003;59889;50.700;5.440;2024-01-10T14:09:59;10;10;
72023;PMS5003;59889;50.700;5.440;2024-01-10T14:12:23;11;10;
72023;PMS5003;59889;50.700;5.440;2024-01-10T14:14:48;9;8;
72023;PMS5003;59889;50.700;5.440;2024-01-10T14:17:14;11;10;
72023;PMS5003;59889;50.700;5.440;2024-01-10T14:19:39;8;8;
72023;PMS5003;59889;50.700;5.440;2024-01-10T14:22:05;9;7;
72023;PMS5003;59889;50.700;5.440;2024-01-10T14:24:30;11;10;
72023;PMS5003;59889;50.700;5.440;2024-01-10T14:26:57;10;9;
72023;PMS5003;59889;50.700;5.440;2024-01-10T14:29:21;12;9;
72023;PMS5003;59889;50.700;5.440;2024-01-10T14:31:46;9;8;
72023;PMS5003;59889;50.700;5.440;2024-01-10T14:34:11;9;9;
72023;PMS5003;59889;50.700;5.440;2024-01-10T14:36:37;8;8;
72023;PMS5003;59889;50.700;5.440;2024-01-10T14:39:02;12;11;
72023;PMS5003;59889;50.700;5.440;2024-01-10T14:41:27;10;9;
72023;PMS5003;59889;50.700;5.440;2024-01-10T14:43:53;8;8;
72023;PMS5003;59889;50.700;5.440;2024-01-10T14:46:17;6;6;
72023;PMS5003;59889;50.700;5.440;2024-01-10T14:48:43;9;9;
72023;PMS5003;59889;50.700;5.440;2024-01-10T14:51:08;9;8;
72023;PMS5003;59889;50.700;5.440;2024-01-10T14:53:34;11;10;
72023;PMS5003;59889;50.700;5.440;2024-01-10T14:55:59;8;8;
72023;PMS5003;59889;50.700;5.440;2024-01-10T14:58:24;14;11;
72023;PMS5003;59889;50.700;5.440;2024-01-10T15:00:50;10;8;
72023;PMS5003;59889;50.700;5.440;2024-01-10T15:03:16;11;10;
72023;PMS5003;59889;50.700;5.440;2024-01-10T15:05:41;7;7;
72023;PMS5003;59889;50.700;5.440;2024-01-10T15:08:05;12;11;
72023;PMS5003;59889;50.700;5.440;2024-01-10T15:10:31;13;12;
72023;PMS5003;59889;50.700;5.440;2024-01-10T15:12:56;8;8;
72023;PMS5003;59889;50.700;5.440;2024-01-10T15:15:21;10;10;
72023;PMS5003;59889;50.700;5.440;2024-01-10T15:17:47;8;7;
72023;PMS5003;59889;50.700;5.440;2024-01-10T15:20:12;9;9;
72023;PMS5003;59889;50.700;5.440;2024-01-10T15:22:37;8;8;
72023;PMS5003;59889;50.700;5.440;2024-01-10T15:25:02;9;7;
72023;PMS5003;59889;50.700;5.440;2024-01-10T15:27:27;9;8;
72023;PMS5003;59889;50.700;5.440;2024-01-10T15:29:52;11;10;
72023;PMS5003;59889;50.700;5.440;2024-01-10T15:32:17;10;10;
72023;PMS5003;59889;50.700;5.440;2024-01-10T15:34:43;10;10;
72023;PMS5003;59889;50.700;5.440;2024-01-10T15:37:08;9;9;
72023;PMS5003;59889;50.700;5.440;2024-01-10T15:39:33;10;9;
72023;PMS5003;59889;50.700;5.440;2024-01-10T15:42:00;13;10;
72023;PMS5003;59889;50.700;5.440;2024-01-10T15:44:24;10;9;
72023;PMS5003;59889;50.700;5.440;2024-01-10T15:46:48;12;9;
72023;PMS5003;59889;50.700;5.440;2024-01-10T15:49:13;10;10;
72023;PMS5003;59889;50.700;5.440;2024-01-10T15:51:39;10;9;
72023;PMS5003;59889;50.700;5.440;2024-01-10T15:54:04;10;9;
72023;PMS5003;59889;50.700;5.440;2024-01-10T15:56:29;10;10;
72023;PMS5003;59889;50.700;5.440;2024-01-10T15:58:55;12;11;
72023;PMS5003;59889;50.700;5.440;2024-01-10T16:01:19;9;9;
72023;PMS5003;59889;50.700;5.440;2024-01-10T16:03:45;11;11;
72023;PMS5003;59889;50.700;5.440;2024-01-10T16:06:10;11;10;
72023;PMS5003;59889;50.700;5.440;2024-01-10T16:08:35;10;8;
72023;PMS5003;59889;50.700;5.440;2024-01-10T16:11:00;10;9;
72023;PMS5003;59889;50.700;5.440;2024-01-10T16:13:25;10;9;
72023;PMS5003;59889;50.700;5.440;2024-01-10T16:15:52;8;8;
72023;PMS5003;59889;50.700;5.440;2024-01-10T16:18:16;9;8;
72023;PMS5003;59889;50.700;5.440;2024-01-10T16:20:41;13;9;
72023;PMS5003;59889;50.700;5.440;2024-01-10T16:23:06;10;9;
72023;PMS5003;59889;50.700;5.440;2024-01-10T16:25:31;12;10;